Time,TemperatureF,DewpointF,PressureIn,WindDirection,WindDirectionDegrees,WindSpeedMPH,WindSpeedGustMPH,Humidity,HourlyPrecipIn,Conditions,Clouds,dailyrainin,SolarRadiationWatts/m^2,SoftwareType,DateUTC
2013-03-22 00:00:00,31.0,18.0,29.94,ENE,59,2.0,-999.0,59,-99.99,,,-99.99,0.000000,,2013-03-22 06:00:00,
2013-03-22 00:52:00,31.0,18.0,29.94,ENE,59,2.0,-999.0,59,-99.99,,,-99.99,0.000000,,2013-03-22 06:52:00,
2013-03-22 02:00:00,30.0,18.0,29.94,NNE,27,4.0,5.0,61,-99.99,,,-99.99,0.000000,,2013-03-22 08:00:00,
2013-03-22 03:00:00,27.0,16.0,29.93,NNE,29,1.0,-999.0,62,-99.99,,,-99.99,0.000000,,2013-03-22 09:00:00,
2013-03-22 03:53:00,27.0,16.0,29.93,NNE,29,1.0,-999.0,62,-99.99,,,-99.99,0.000000,,2013-03-22 09:53:00,
2013-03-22 08:00:00,22.0,17.0,29.89,North,0,0.0,0.0,82,-99.99,,,-99.99,9.930000,,2013-03-22 14:00:00,
2013-03-22 08:52:00,22.0,17.0,29.89,North,0,0.0,0.0,82,-99.99,,,-99.99,9.930000,,2013-03-22 14:52:00,
2013-03-22 09:00:00,28.0,18.0,29.90,South,176,2.0,-999.0,64,-99.99,,,-99.99,153.899994,,2013-03-22 15:00:00,
2013-03-22 09:53:00,28.0,18.0,29.90,South,176,2.0,-999.0,64,-99.99,,,-99.99,153.899994,,2013-03-22 15:53:00,
2013-03-22 10:00:00,33.0,15.0,29.89,South,174,2.0,-999.0,47,-99.99,,,-99.99,324.100006,,2013-03-22 16:00:00,
2013-03-22 10:52:00,33.0,15.0,29.89,South,174,2.0,-999.0,47,-99.99,,,-99.99,324.100006,,2013-03-22 16:52:00,
2013-03-22 11:00:00,35.0,13.0,29.88,NNE,30,1.0,-999.0,40,-99.99,,,-99.99,504.600006,,2013-03-22 17:00:00,
2013-03-22 11:53:00,35.0,13.0,29.88,NNE,30,1.0,-999.0,40,-99.99,,,-99.99,504.600006,,2013-03-22 17:53:00,
2013-03-22 12:00:00,37.0,18.0,29.88,West,273,2.0,-999.0,46,-99.99,,,-99.99,595.000000,,2013-03-22 18:00:00,
2013-03-22 12:52:00,37.0,18.0,29.88,West,273,2.0,-999.0,46,-99.99,,,-99.99,595.000000,,2013-03-22 18:52:00,
2013-03-22 13:00:00,32.0,28.0,29.89,NNW,337,11.0,-999.0,87,-99.99,,,-99.99,493.600006,,2013-03-22 19:00:00,
2013-03-22 13:52:00,32.0,28.0,29.89,NNW,337,11.0,-999.0,87,-99.99,,,-99.99,493.600006,,2013-03-22 19:52:00,
2013-03-22 14:00:00,32.0,24.0,29.89,North,8,11.0,-999.0,74,-99.99,,,-99.99,451.700012,,2013-03-22 20:00:00,
2013-03-22 14:52:00,32.0,24.0,29.89,North,8,11.0,-999.0,74,-99.99,,,-99.99,451.700012,,2013-03-22 20:52:00,
2013-03-22 15:00:00,33.0,22.0,29.88,North,7,9.0,-999.0,65,-99.99,,,-99.99,348.000000,,2013-03-22 21:00:00,
2013-03-22 15:53:00,33.0,22.0,29.88,North,7,9.0,-999.0,65,-99.99,,,-99.99,348.000000,,2013-03-22 21:53:00,
2013-03-22 16:00:00,32.0,21.0,29.88,North,5,10.0,-999.0,64,-99.99,,,-99.99,198.399994,,2013-03-22 22:00:00,
2013-03-22 16:53:00,32.0,21.0,29.88,North,5,10.0,-999.0,64,-99.99,,,-99.99,198.399994,,2013-03-22 22:53:00,
2013-03-22 17:00:00,32.0,16.0,29.88,North,4,9.0,-999.0,53,-99.99,,,-99.99,144.100006,,2013-03-22 23:00:00,
2013-03-22 17:52:00,32.0,16.0,29.88,North,4,9.0,-999.0,53,-99.99,,,-99.99,144.100006,,2013-03-22 23:52:00,
2013-03-22 18:00:00,31.0,16.0,29.89,North,6,11.0,-999.0,53,-99.99,,,-99.99,108.000000,,2013-03-23 00:00:00,
2013-03-22 18:52:00,31.0,16.0,29.89,North,6,11.0,-999.0,53,-99.99,,,-99.99,108.000000,,2013-03-23 00:52:00,
2013-03-22 19:00:00,29.0,20.0,29.91,North,1,8.0,-999.0,69,-99.99,,,-99.99,41.410000,,2013-03-23 01:00:00,
2013-03-22 19:52:00,29.0,20.0,29.91,North,1,8.0,-999.0,69,-99.99,,,-99.99,41.410000,,2013-03-23 01:52:00,
2013-03-22 20:00:00,27.0,19.0,29.93,NNW,341,8.0,-999.0,72,-99.99,,,-99.99,10.180000,,2013-03-23 02:00:00,
2013-03-22 20:52:00,27.0,19.0,29.93,NNW,341,8.0,-999.0,72,-99.99,,,-99.99,10.180000,,2013-03-23 02:52:00,
2013-03-22 21:00:00,25.0,18.0,29.96,NNW,340,8.0,-999.0,73,-99.99,,,-99.99,0.000000,,2013-03-23 03:00:00,
2013-03-22 21:53:00,25.0,18.0,29.96,NNW,340,8.0,-999.0,73,-99.99,,,-99.99,0.000000,,2013-03-23 03:53:00,
2013-03-22 22:00:00,25.0,17.0,29.99,NNW,339,6.0,-999.0,71,-99.99,,,-99.99,0.000000,,2013-03-23 04:00:00,
2013-03-22 22:53:00,25.0,17.0,29.99,NNW,339,6.0,-999.0,71,-99.99,,,-99.99,0.000000,,2013-03-23 04:53:00,
2013-03-22 23:00:00,23.0,16.0,29.98,NNW,337,4.0,-999.0,75,-99.99,,,-99.99,0.000000,,2013-03-23 05:00:00,
2013-03-22 23:52:00,23.0,16.0,29.98,NNW,337,4.0,-999.0,75,-99.99,,,-99.99,0.000000,,2013-03-23 05:52:00,